createdAt,value
2018-08-27T01:30:34.676Z,1007.62
2018-08-27T01:30:35.185Z,1007.66
2018-08-27T01:30:35.778Z,1007.64
2018-08-27T01:30:36.376Z,1007.62
2018-08-27T01:30:36.976Z,1007.61
2018-08-27T01:30:37.576Z,1007.63
2018-08-27T01:30:38.176Z,1007.64
2018-08-27T01:31:31.665Z,1007.60
2018-08-27T01:31:32.241Z,1007.57
2018-08-27T01:31:32.838Z,1007.58
2018-08-27T01:31:33.439Z,1007.59
2018-08-27T01:31:34.040Z,1007.59
2018-08-27T01:31:34.640Z,1007.57
2018-08-27T01:31:35.238Z,1007.59
2018-08-27T01:31:35.837Z,1007.61
2018-08-27T01:32:30.344Z,1007.56
2018-08-27T01:32:30.913Z,1007.53
2018-08-27T01:32:31.514Z,1007.55
2018-08-27T01:32:32.114Z,1007.58
2018-08-27T01:32:32.713Z,1007.60
2018-08-27T01:32:33.314Z,1007.60
2018-08-27T01:32:33.913Z,1007.63
2018-08-27T01:32:34.512Z,1007.60
2018-08-27T01:33:27.996Z,1007.62
2018-08-27T01:33:28.568Z,1007.59
2018-08-27T01:33:29.170Z,1007.57
2018-08-27T01:33:29.767Z,1007.56
2018-08-27T01:33:30.367Z,1007.58
2018-08-27T01:33:30.969Z,1007.58
2018-08-27T01:33:31.567Z,1007.56
2018-08-27T01:33:32.166Z,1007.57
2018-08-27T01:34:25.762Z,1007.58
2018-08-27T01:34:26.323Z,1007.56
2018-08-27T01:34:26.923Z,1007.57
2018-08-27T01:34:27.522Z,1007.55
2018-08-27T01:34:28.123Z,1007.54
2018-08-27T01:34:28.722Z,1007.55
2018-08-27T01:34:29.320Z,1007.55
2018-08-27T01:34:29.927Z,1007.58
2018-08-27T01:35:23.402Z,1007.58
2018-08-27T01:35:23.974Z,1007.60
2018-08-27T01:35:24.573Z,1007.56
2018-08-27T01:35:25.174Z,1007.57
2018-08-27T01:35:25.774Z,1007.57
2018-08-27T01:35:26.373Z,1007.60
2018-08-27T01:35:26.974Z,1007.58
2018-08-27T01:35:27.573Z,1007.56
2018-08-27T01:36:21.054Z,1007.57
2018-08-27T01:36:21.625Z,1007.58
2018-08-27T01:36:22.230Z,1007.60
2018-08-27T01:36:22.825Z,1007.56
2018-08-27T01:36:23.426Z,1007.55
2018-08-27T01:36:24.026Z,1007.57
2018-08-27T01:36:24.625Z,1007.57
2018-08-27T01:36:25.225Z,1007.58
2018-08-27T01:37:18.704Z,1007.51
2018-08-27T01:37:19.278Z,1007.52
2018-08-27T01:37:19.884Z,1007.53
2018-08-27T01:37:20.478Z,1007.51
2018-08-27T01:37:21.078Z,1007.54
2018-08-27T01:37:21.678Z,1007.51
2018-08-27T01:37:22.281Z,1007.51
2018-08-27T01:37:22.876Z,1007.53
2018-08-27T01:38:17.379Z,1007.51
2018-08-27T01:38:17.953Z,1007.47
2018-08-27T01:38:18.552Z,1007.49
2018-08-27T01:38:19.152Z,1007.50
2018-08-27T01:38:19.752Z,1007.47
2018-08-27T01:38:20.352Z,1007.48
2018-08-27T01:38:20.952Z,1007.45
2018-08-27T01:38:21.553Z,1007.51
2018-08-27T01:39:15.035Z,1007.46
2018-08-27T01:39:15.605Z,1007.46
2018-08-27T01:39:16.208Z,1007.44
2018-08-27T01:39:16.806Z,1007.45
2018-08-27T01:39:17.405Z,1007.44
2018-08-27T01:39:18.007Z,1007.47
2018-08-27T01:39:18.605Z,1007.47
2018-08-27T01:39:19.205Z,1007.40
2018-08-27T01:40:12.687Z,1007.40
2018-08-27T01:40:13.258Z,1007.42
2018-08-27T01:40:13.865Z,1007.41
2018-08-27T01:40:14.457Z,1007.45
2018-08-27T01:40:15.057Z,1007.44
2018-08-27T01:40:15.658Z,1007.43
2018-08-27T01:40:16.256Z,1007.39
2018-08-27T01:40:16.856Z,1007.43
2018-08-27T01:41:11.360Z,1007.37
2018-08-27T01:41:11.932Z,1007.38
2018-08-27T01:41:12.541Z,1007.39
2018-08-27T01:41:13.132Z,1007.38
2018-08-27T01:41:13.733Z,1007.40
2018-08-27T01:41:14.332Z,1007.36
2018-08-27T01:41:14.933Z,1007.39
2018-08-27T01:41:15.532Z,1007.37
2018-08-27T01:42:09.014Z,1007.33
2018-08-27T01:42:09.588Z,1007.31
2018-08-27T01:42:10.186Z,1007.31
2018-08-27T01:42:10.785Z,1007.33
2018-08-27T01:42:11.384Z,1007.31
2018-08-27T01:42:11.986Z,1007.34
2018-08-27T01:42:12.585Z,1007.33
2018-08-27T01:42:13.191Z,1007.29
2018-08-27T01:43:06.666Z,1007.27
2018-08-27T01:43:07.236Z,1007.25
2018-08-27T01:43:07.840Z,1007.27
2018-08-27T01:43:08.436Z,1007.27
2018-08-27T01:43:09.036Z,1007.29
2018-08-27T01:43:09.636Z,1007.27
2018-08-27T01:43:10.235Z,1007.25
2018-08-27T01:43:10.837Z,1007.25
2018-08-27T01:44:04.317Z,1007.23
2018-08-27T01:44:04.888Z,1007.25
2018-08-27T01:44:05.493Z,1007.25
2018-08-27T01:44:06.090Z,1007.28
2018-08-27T01:44:06.687Z,1007.29
2018-08-27T01:44:07.286Z,1007.27
2018-08-27T01:44:07.887Z,1007.27
2018-08-27T01:44:08.490Z,1007.28
2018-08-27T01:45:01.970Z,1007.29
2018-08-27T01:45:02.541Z,1007.29
2018-08-27T01:45:03.141Z,1007.25
2018-08-27T01:45:03.740Z,1007.26
2018-08-27T01:45:04.340Z,1007.24
2018-08-27T01:45:04.939Z,1007.23
2018-08-27T01:45:05.540Z,1007.28
2018-08-27T01:45:06.140Z,1007.25
2018-08-27T01:46:00.643Z,1007.19
2018-08-27T01:46:01.215Z,1007.23
2018-08-27T01:46:01.817Z,1007.21
2018-08-27T01:46:02.415Z,1007.19
2018-08-27T01:46:03.017Z,1007.19
2018-08-27T01:46:03.615Z,1007.21
2018-08-27T01:46:04.214Z,1007.23
2018-08-27T01:46:04.816Z,1007.19
2018-08-27T01:46:59.321Z,1007.23
2018-08-27T01:46:59.892Z,1007.22
2018-08-27T01:47:00.494Z,1007.20
2018-08-27T01:47:01.093Z,1007.19
2018-08-27T01:47:01.693Z,1007.22
2018-08-27T01:47:02.291Z,1007.21
2018-08-27T01:47:02.895Z,1007.21
2018-08-27T01:47:03.491Z,1007.24
2018-08-27T01:47:57.994Z,1007.21
2018-08-27T01:47:58.570Z,1007.23
2018-08-27T01:47:59.168Z,1007.23
2018-08-27T01:47:59.767Z,1007.24
2018-08-27T01:48:00.368Z,1007.24
2018-08-27T01:48:00.967Z,1007.23
2018-08-27T01:48:01.567Z,1007.25
2018-08-27T01:48:02.167Z,1007.23
2018-08-27T01:48:56.671Z,1007.17
2018-08-27T01:48:57.244Z,1007.22
2018-08-27T01:48:57.844Z,1007.20
2018-08-27T01:48:58.445Z,1007.20
2018-08-27T01:48:59.041Z,1007.18
2018-08-27T01:48:59.640Z,1007.18
2018-08-27T01:49:00.239Z,1007.21
2018-08-27T01:49:00.841Z,1007.22
2018-08-27T01:49:54.324Z,1007.19
2018-08-27T01:49:54.895Z,1007.19
2018-08-27T01:49:55.496Z,1007.19
2018-08-27T01:49:56.099Z,1007.20
2018-08-27T01:49:56.696Z,1007.22
2018-08-27T01:49:57.296Z,1007.22
2018-08-27T01:49:57.895Z,1007.23
2018-08-27T01:49:58.494Z,1007.21
2018-08-27T01:50:51.976Z,1007.23
2018-08-27T01:50:52.548Z,1007.21
2018-08-27T01:50:53.148Z,1007.23
2018-08-27T01:50:53.747Z,1007.23
2018-08-27T01:50:54.348Z,1007.20
2018-08-27T01:50:54.950Z,1007.21
2018-08-27T01:50:55.556Z,1007.24
2018-08-27T01:50:56.147Z,1007.22
2018-08-27T01:51:49.629Z,1007.21
2018-08-27T01:51:50.198Z,1007.23
2018-08-27T01:51:50.800Z,1007.20
2018-08-27T01:51:51.399Z,1007.19
2018-08-27T01:51:51.998Z,1007.21
2018-08-27T01:51:52.600Z,1007.22
2018-08-27T01:51:53.198Z,1007.19
2018-08-27T01:51:53.799Z,1007.23
2018-08-27T01:52:48.302Z,1007.21
2018-08-27T01:52:48.875Z,1007.18
2018-08-27T01:52:49.478Z,1007.21
2018-08-27T01:52:50.073Z,1007.21
2018-08-27T01:52:50.673Z,1007.18
2018-08-27T01:52:51.274Z,1007.16
2018-08-27T01:52:51.874Z,1007.15
2018-08-27T01:52:52.473Z,1007.15
2018-08-27T01:53:46.978Z,1007.11
2018-08-27T01:53:47.550Z,1007.13
2018-08-27T01:53:48.151Z,1007.16
2018-08-27T01:53:48.750Z,1007.13
2018-08-27T01:53:49.352Z,1007.14
2018-08-27T01:53:49.950Z,1007.15
2018-08-27T01:53:50.550Z,1007.14
2018-08-27T01:53:51.149Z,1007.14
2018-08-27T01:54:44.634Z,1007.10
2018-08-27T01:54:45.203Z,1007.10
2018-08-27T01:54:45.804Z,1007.10
2018-08-27T01:54:46.404Z,1007.11
2018-08-27T01:54:47.002Z,1007.12
2018-08-27T01:54:47.603Z,1007.10
2018-08-27T01:54:48.203Z,1007.06
2018-08-27T01:54:48.802Z,1007.08
2018-08-27T01:55:42.281Z,1007.08
2018-08-27T01:55:42.855Z,1007.02
2018-08-27T01:55:43.455Z,1007.06
2018-08-27T01:55:44.054Z,1007.05
2018-08-27T01:55:44.654Z,1007.04
2018-08-27T01:55:45.255Z,1007.04
2018-08-27T01:55:45.854Z,1007.06
2018-08-27T01:55:46.453Z,1007.08
2018-08-27T01:56:40.958Z,1007.02
2018-08-27T01:56:41.530Z,1007.01
2018-08-27T01:56:42.129Z,1006.95
2018-08-27T01:56:42.729Z,1007.03
2018-08-27T01:56:43.329Z,1006.98
2018-08-27T01:56:43.932Z,1006.99
2018-08-27T01:56:44.529Z,1007.02
2018-08-27T01:56:45.129Z,1007.03
2018-08-27T01:57:39.633Z,1007.02
2018-08-27T01:57:40.208Z,1007.02
2018-08-27T01:57:40.806Z,1007.01
2018-08-27T01:57:41.405Z,1007.02
2018-08-27T01:57:42.006Z,1007.02
2018-08-27T01:57:42.606Z,1007.05
2018-08-27T01:57:43.205Z,1007.05
2018-08-27T01:57:43.805Z,1007.01
2018-08-27T01:58:37.285Z,1006.98
2018-08-27T01:58:37.858Z,1007.00
2018-08-27T01:58:38.458Z,1006.97
2018-08-27T01:58:39.059Z,1006.98
2018-08-27T01:58:39.658Z,1007.01
2018-08-27T01:58:40.258Z,1006.97
2018-08-27T01:58:40.857Z,1006.97
2018-08-27T01:58:41.458Z,1006.96
2018-08-27T01:59:34.938Z,1006.91
2018-08-27T01:59:35.510Z,1006.94
2018-08-27T01:59:36.113Z,1006.94
2018-08-27T01:59:36.714Z,1006.93
2018-08-27T01:59:37.309Z,1006.98
2018-08-27T01:59:37.910Z,1006.92
2018-08-27T01:59:38.508Z,1006.93
2018-08-27T01:59:39.110Z,1006.94
2018-08-27T02:00:33.612Z,1006.92
2018-08-27T02:00:34.185Z,1006.89
2018-08-27T02:00:34.786Z,1006.93
2018-08-27T02:00:35.385Z,1006.91
2018-08-27T02:00:35.987Z,1006.93
2018-08-27T02:00:36.584Z,1006.94
2018-08-27T02:00:37.184Z,1006.90
2018-08-27T02:00:37.784Z,1006.93
2018-08-27T02:01:32.288Z,1006.82
2018-08-27T02:01:32.860Z,1006.84
2018-08-27T02:01:33.461Z,1006.84
2018-08-27T02:01:34.060Z,1006.84
2018-08-27T02:01:34.659Z,1006.85
2018-08-27T02:01:35.259Z,1006.81
2018-08-27T02:01:35.859Z,1006.81
2018-08-27T02:01:36.460Z,1006.77
2018-08-27T02:02:29.941Z,1006.80
2018-08-27T02:02:30.514Z,1006.81
2018-08-27T02:02:31.113Z,1006.82
2018-08-27T02:02:31.716Z,1006.83
2018-08-27T02:02:32.312Z,1006.81
2018-08-27T02:02:32.912Z,1006.81
2018-08-27T02:02:33.512Z,1006.83
2018-08-27T02:02:34.113Z,1006.84
2018-08-27T02:03:27.593Z,1006.81
2018-08-27T02:03:28.167Z,1006.80
2018-08-27T02:03:28.766Z,1006.83
2018-08-27T02:03:29.367Z,1006.80
2018-08-27T02:03:29.964Z,1006.79
2018-08-27T02:03:30.565Z,1006.81
2018-08-27T02:03:31.163Z,1006.78
2018-08-27T02:03:31.765Z,1006.75
2018-08-27T02:04:26.269Z,1006.75
2018-08-27T02:04:26.839Z,1006.74
2018-08-27T02:04:27.443Z,1006.75
2018-08-27T02:04:28.039Z,1006.78
2018-08-27T02:04:28.639Z,1006.77
2018-08-27T02:04:29.240Z,1006.76
2018-08-27T02:04:29.840Z,1006.80
2018-08-27T02:04:30.441Z,1006.77
2018-08-27T02:05:24.943Z,1006.71
2018-08-27T02:05:25.515Z,1006.75
2018-08-27T02:05:26.116Z,1006.74
2018-08-27T02:05:26.715Z,1006.76
2018-08-27T02:05:27.314Z,1006.74
2018-08-27T02:05:27.914Z,1006.76
2018-08-27T02:05:28.515Z,1006.76
2018-08-27T02:05:29.125Z,1006.75
2018-08-27T02:06:22.595Z,1006.71
2018-08-27T02:06:23.173Z,1006.73
2018-08-27T02:06:23.769Z,1006.72
2018-08-27T02:06:24.368Z,1006.69
2018-08-27T02:06:24.967Z,1006.68
2018-08-27T02:06:25.567Z,1006.69
2018-08-27T02:06:26.167Z,1006.72
2018-08-27T02:06:26.768Z,1006.72
2018-08-27T02:07:21.269Z,1006.67
2018-08-27T02:07:21.842Z,1006.63
2018-08-27T02:07:22.445Z,1006.67
2018-08-27T02:07:23.062Z,1006.67
2018-08-27T02:07:23.642Z,1006.65
2018-08-27T02:07:24.248Z,1006.65
2018-08-27T02:07:24.842Z,1006.67
2018-08-27T02:07:25.442Z,1006.69
2018-08-27T02:08:18.937Z,1006.62
2018-08-27T02:08:19.495Z,1006.58
2018-08-27T02:08:20.096Z,1006.59
2018-08-27T02:08:20.696Z,1006.60
2018-08-27T02:08:21.294Z,1006.62
2018-08-27T02:08:21.896Z,1006.60
2018-08-27T02:08:22.498Z,1006.63
2018-08-27T02:08:23.094Z,1006.62
2018-08-27T02:09:16.574Z,1006.58
2018-08-27T02:09:17.147Z,1006.57
2018-08-27T02:09:17.745Z,1006.57
2018-08-27T02:09:18.352Z,1006.61
2018-08-27T02:09:18.947Z,1006.61
2018-08-27T02:09:19.547Z,1006.63
2018-08-27T02:09:20.149Z,1006.60
2018-08-27T02:09:20.746Z,1006.58
2018-08-27T02:10:15.249Z,1006.57
2018-08-27T02:10:15.820Z,1006.59
2018-08-27T02:10:16.424Z,1006.55
2018-08-27T02:10:17.022Z,1006.59
2018-08-27T02:10:17.622Z,1006.58
2018-08-27T02:10:18.220Z,1006.56
2018-08-27T02:10:18.822Z,1006.58
2018-08-27T02:10:19.421Z,1006.58
2018-08-27T02:11:13.927Z,1006.54
2018-08-27T02:11:14.502Z,1006.50
2018-08-27T02:11:15.098Z,1006.54
2018-08-27T02:11:15.697Z,1006.49
2018-08-27T02:11:16.297Z,1006.53
2018-08-27T02:11:16.899Z,1006.54
2018-08-27T02:11:17.496Z,1006.52
2018-08-27T02:11:18.098Z,1006.51
2018-08-27T02:12:11.578Z,1006.56
2018-08-27T02:12:12.149Z,1006.54
2018-08-27T02:12:12.750Z,1006.56
2018-08-27T02:12:13.352Z,1006.56
2018-08-27T02:12:13.949Z,1006.58
2018-08-27T02:12:14.549Z,1006.58
2018-08-27T02:12:15.148Z,1006.60
2018-08-27T02:12:15.754Z,1006.58
2018-08-27T02:13:09.228Z,1006.54
2018-08-27T02:13:09.801Z,1006.53
2018-08-27T02:13:10.401Z,1006.53
2018-08-27T02:13:11.004Z,1006.52
2018-08-27T02:13:11.600Z,1006.50
2018-08-27T02:13:12.200Z,1006.57
2018-08-27T02:13:12.805Z,1006.53
2018-08-27T02:13:13.401Z,1006.54
2018-08-27T02:14:06.880Z,1006.52
2018-08-27T02:14:07.452Z,1006.53
2018-08-27T02:14:08.053Z,1006.57
2018-08-27T02:14:08.652Z,1006.52
2018-08-27T02:14:09.254Z,1006.53
2018-08-27T02:14:09.853Z,1006.56
2018-08-27T02:14:10.452Z,1006.56
2018-08-27T02:14:11.054Z,1006.54
2018-08-27T02:15:05.556Z,1006.55
2018-08-27T02:15:06.129Z,1006.58
2018-08-27T02:15:06.733Z,1006.54
2018-08-27T02:15:07.334Z,1006.54
2018-08-27T02:15:07.925Z,1006.50
2018-08-27T02:15:08.525Z,1006.52
2018-08-27T02:15:09.125Z,1006.52
2018-08-27T02:15:09.725Z,1006.49
2018-08-27T02:16:04.233Z,1006.52
2018-08-27T02:16:04.803Z,1006.50
2018-08-27T02:16:05.404Z,1006.52
2018-08-27T02:16:06.007Z,1006.51
2018-08-27T02:16:06.603Z,1006.50
2018-08-27T02:16:07.205Z,1006.49
2018-08-27T02:16:07.809Z,1006.49
2018-08-27T02:16:08.404Z,1006.49
2018-08-27T02:17:01.889Z,1006.45
2018-08-27T02:17:02.456Z,1006.47
2018-08-27T02:17:03.057Z,1006.48
2018-08-27T02:17:03.655Z,1006.45
2018-08-27T02:17:04.253Z,1006.45
2018-08-27T02:17:04.856Z,1006.46
2018-08-27T02:17:05.454Z,1006.45
2018-08-27T02:17:06.058Z,1006.43
2018-08-27T02:17:59.535Z,1006.44
2018-08-27T02:18:00.108Z,1006.45
2018-08-27T02:18:00.710Z,1006.43
2018-08-27T02:18:01.310Z,1006.43
2018-08-27T02:18:01.907Z,1006.43
2018-08-27T02:18:02.507Z,1006.43
2018-08-27T02:18:03.106Z,1006.38
2018-08-27T02:18:03.707Z,1006.39
2018-08-27T02:18:58.211Z,1006.41
2018-08-27T02:18:58.782Z,1006.40
2018-08-27T02:18:59.383Z,1006.41
2018-08-27T02:18:59.985Z,1006.40
2018-08-27T02:19:00.582Z,1006.43
2018-08-27T02:19:01.185Z,1006.43
2018-08-27T02:19:01.783Z,1006.42
2018-08-27T02:19:02.388Z,1006.44
2018-08-27T02:19:55.862Z,1006.45
2018-08-27T02:19:56.436Z,1006.44
2018-08-27T02:19:57.036Z,1006.46
2018-08-27T02:19:57.636Z,1006.43
2018-08-27T02:19:58.235Z,1006.45
2018-08-27T02:19:58.835Z,1006.44
2018-08-27T02:19:59.435Z,1006.46
2018-08-27T02:20:00.034Z,1006.48
2018-08-27T02:20:53.519Z,1006.42
2018-08-27T02:20:54.140Z,1006.39
2018-08-27T02:20:54.696Z,1006.43
2018-08-27T02:20:55.323Z,1006.42
2018-08-27T02:20:55.897Z,1006.46
2018-08-27T02:20:56.541Z,1006.45
2018-08-27T02:20:57.090Z,1006.45
2018-08-27T02:20:57.734Z,1006.46
2018-08-27T02:21:51.167Z,1006.35
2018-08-27T02:21:51.739Z,1006.38
2018-08-27T02:21:52.342Z,1006.37
2018-08-27T02:21:52.944Z,1006.33
2018-08-27T02:21:53.537Z,1006.37
2018-08-27T02:21:54.136Z,1006.41
2018-08-27T02:21:54.738Z,1006.34
2018-08-27T02:21:55.336Z,1006.40
2018-08-27T02:22:49.841Z,1006.38
2018-08-27T02:22:50.414Z,1006.35
2018-08-27T02:22:51.018Z,1006.38
2018-08-27T02:22:51.614Z,1006.39
2018-08-27T02:22:52.213Z,1006.35
2018-08-27T02:22:52.815Z,1006.37
2018-08-27T02:22:53.414Z,1006.36
2018-08-27T02:22:54.016Z,1006.35
2018-08-27T02:23:47.493Z,1006.38
2018-08-27T02:23:48.066Z,1006.36
2018-08-27T02:23:48.665Z,1006.37
2018-08-27T02:23:49.267Z,1006.36
2018-08-27T02:23:49.868Z,1006.39
2018-08-27T02:23:50.465Z,1006.37
2018-08-27T02:23:51.067Z,1006.36
2018-08-27T02:23:51.666Z,1006.37
2018-08-27T02:24:45.146Z,1006.39
2018-08-27T02:24:45.721Z,1006.40
2018-08-27T02:24:46.318Z,1006.37
2018-08-27T02:24:46.920Z,1006.39
2018-08-27T02:24:47.518Z,1006.40
2018-08-27T02:24:48.117Z,1006.40
2018-08-27T02:24:48.719Z,1006.41
2018-08-27T02:24:49.318Z,1006.41
2018-08-27T02:25:42.797Z,1006.31
2018-08-27T02:25:43.368Z,1006.29
2018-08-27T02:25:44.006Z,1006.34
2018-08-27T02:25:44.575Z,1006.33
2018-08-27T02:25:45.188Z,1006.36
2018-08-27T02:25:45.778Z,1006.32
2018-08-27T02:25:46.410Z,1006.30
2018-08-27T02:25:46.985Z,1006.36
2018-08-27T02:26:41.473Z,1006.35
2018-08-27T02:26:42.045Z,1006.36
2018-08-27T02:26:42.646Z,1006.38
2018-08-27T02:26:43.245Z,1006.41
2018-08-27T02:26:43.845Z,1006.39
2018-08-27T02:26:44.444Z,1006.37
2018-08-27T02:26:45.044Z,1006.40
2018-08-27T02:26:45.644Z,1006.38
2018-08-27T02:27:39.124Z,1006.39
2018-08-27T02:27:39.697Z,1006.40
2018-08-27T02:27:40.297Z,1006.39
2018-08-27T02:27:40.899Z,1006.36
2018-08-27T02:27:41.499Z,1006.36
2018-08-27T02:27:42.098Z,1006.35
2018-08-27T02:27:42.700Z,1006.38
2018-08-27T02:27:43.295Z,1006.38
2018-08-27T02:28:36.776Z,1006.39
2018-08-27T02:28:37.348Z,1006.38
2018-08-27T02:28:37.949Z,1006.38
2018-08-27T02:28:38.550Z,1006.36
2018-08-27T02:28:39.148Z,1006.38
2018-08-27T02:28:39.747Z,1006.39
2018-08-27T02:28:40.352Z,1006.39
2018-08-27T02:28:40.947Z,1006.37
2018-08-27T02:29:34.430Z,1006.38
2018-08-27T02:29:35.001Z,1006.35
2018-08-27T02:29:35.601Z,1006.39
2018-08-27T02:29:36.201Z,1006.40
2018-08-27T02:29:36.804Z,1006.37
2018-08-27T02:29:37.402Z,1006.37
2018-08-27T02:29:38.000Z,1006.38
2018-08-27T02:29:38.600Z,1006.38
2018-08-27T02:30:33.105Z,1006.36
2018-08-27T02:30:33.675Z,1006.37
2018-08-27T02:30:34.276Z,1006.37
2018-08-27T02:30:34.876Z,1006.38
2018-08-27T02:30:35.475Z,1006.37
2018-08-27T02:30:36.075Z,1006.36
2018-08-27T02:30:36.675Z,1006.40
2018-08-27T02:30:37.278Z,1006.35
2018-08-27T02:31:30.755Z,1006.35
2018-08-27T02:31:31.331Z,1006.36
2018-08-27T02:31:31.930Z,1006.33
2018-08-27T02:31:32.535Z,1006.34
2018-08-27T02:31:33.127Z,1006.34
2018-08-27T02:31:33.732Z,1006.34
2018-08-27T02:31:34.329Z,1006.35
2018-08-27T02:31:34.927Z,1006.32
2018-08-27T02:32:29.431Z,1006.36
2018-08-27T02:32:30.004Z,1006.37
2018-08-27T02:32:30.603Z,1006.34
2018-08-27T02:32:31.203Z,1006.38
2018-08-27T02:32:31.803Z,1006.35
2018-08-27T02:32:32.407Z,1006.40
2018-08-27T02:32:33.011Z,1006.34
2018-08-27T02:32:33.603Z,1006.37
2018-08-27T02:33:28.107Z,1006.41
2018-08-27T02:33:28.679Z,1006.39
2018-08-27T02:33:29.279Z,1006.41
2018-08-27T02:33:29.880Z,1006.37
2018-08-27T02:33:30.478Z,1006.40
2018-08-27T02:33:31.077Z,1006.41
2018-08-27T02:33:31.681Z,1006.39
2018-08-27T02:33:32.278Z,1006.37
2018-08-27T02:34:25.758Z,1006.41
2018-08-27T02:34:26.332Z,1006.40
2018-08-27T02:34:26.932Z,1006.40
2018-08-27T02:34:27.533Z,1006.40
2018-08-27T02:34:28.132Z,1006.38
2018-08-27T02:34:28.731Z,1006.40
2018-08-27T02:34:29.331Z,1006.38
2018-08-27T02:34:29.932Z,1006.39
2018-08-27T02:35:24.435Z,1006.31
2018-08-27T02:35:25.007Z,1006.32
2018-08-27T02:35:25.607Z,1006.33
2018-08-27T02:35:26.206Z,1006.32
2018-08-27T02:35:26.810Z,1006.31
2018-08-27T02:35:27.406Z,1006.33
2018-08-27T02:35:28.005Z,1006.33
2018-08-27T02:35:28.606Z,1006.33
2018-08-27T02:36:23.111Z,1006.26
2018-08-27T02:36:23.682Z,1006.28
2018-08-27T02:36:24.282Z,1006.26
2018-08-27T02:36:24.882Z,1006.25
2018-08-27T02:36:25.483Z,1006.28
2018-08-27T02:36:26.081Z,1006.29
2018-08-27T02:36:26.681Z,1006.26
2018-08-27T02:36:27.281Z,1006.26
2018-08-27T02:37:20.762Z,1006.32
2018-08-27T02:37:21.334Z,1006.29
2018-08-27T02:37:21.936Z,1006.33
2018-08-27T02:37:22.533Z,1006.27
2018-08-27T02:37:23.134Z,1006.31
2018-08-27T02:37:23.734Z,1006.29
2018-08-27T02:37:24.333Z,1006.31
2018-08-27T02:37:24.934Z,1006.36
2018-08-27T02:38:18.415Z,1006.29
2018-08-27T02:38:18.985Z,1006.30
2018-08-27T02:38:19.589Z,1006.29
2018-08-27T02:38:20.188Z,1006.30
2018-08-27T02:38:20.786Z,1006.32
2018-08-27T02:38:21.385Z,1006.26
2018-08-27T02:38:21.985Z,1006.27
2018-08-27T02:38:22.585Z,1006.26
2018-08-27T02:39:16.065Z,1006.22
2018-08-27T02:39:16.637Z,1006.21
2018-08-27T02:39:17.245Z,1006.19
2018-08-27T02:39:17.840Z,1006.20
2018-08-27T02:39:18.437Z,1006.20
2018-08-27T02:39:19.039Z,1006.17
2018-08-27T02:39:19.640Z,1006.21
2018-08-27T02:39:20.236Z,1006.21
2018-08-27T02:40:13.720Z,1006.17
2018-08-27T02:40:14.290Z,1006.22
2018-08-27T02:40:14.893Z,1006.21
2018-08-27T02:40:15.488Z,1006.19
2018-08-27T02:40:16.089Z,1006.17
2018-08-27T02:40:16.688Z,1006.21
2018-08-27T02:40:17.334Z,1006.19
2018-08-27T02:40:17.888Z,1006.17
2018-08-27T02:41:12.392Z,1006.23
2018-08-27T02:41:12.965Z,1006.22
2018-08-27T02:41:13.565Z,1006.25
2018-08-27T02:41:14.165Z,1006.23
2018-08-27T02:41:14.764Z,1006.23
2018-08-27T02:41:15.364Z,1006.23
2018-08-27T02:41:15.963Z,1006.26
2018-08-27T02:41:16.564Z,1006.25
2018-08-27T02:42:10.044Z,1006.15
2018-08-27T02:42:10.617Z,1006.14
2018-08-27T02:42:11.226Z,1006.15
2018-08-27T02:42:11.818Z,1006.13
2018-08-27T02:42:12.416Z,1006.14
2018-08-27T02:42:13.016Z,1006.13
2018-08-27T02:42:13.616Z,1006.15
2018-08-27T02:42:14.214Z,1006.15
2018-08-27T02:43:08.720Z,1006.20
2018-08-27T02:43:09.291Z,1006.18
2018-08-27T02:43:09.897Z,1006.20
2018-08-27T02:43:10.494Z,1006.19
2018-08-27T02:43:11.091Z,1006.19
2018-08-27T02:43:11.691Z,1006.18
2018-08-27T02:43:12.296Z,1006.17
2018-08-27T02:43:12.904Z,1006.17
2018-08-27T02:44:06.372Z,1006.14
2018-08-27T02:44:06.946Z,1006.14
2018-08-27T02:44:07.543Z,1006.11
2018-08-27T02:44:08.148Z,1006.13
2018-08-27T02:44:08.744Z,1006.14
2018-08-27T02:44:09.343Z,1006.15
2018-08-27T02:44:09.942Z,1006.14
2018-08-27T02:44:10.543Z,1006.16
2018-08-27T02:45:05.050Z,1006.13
2018-08-27T02:45:05.620Z,1006.11
2018-08-27T02:45:06.219Z,1006.13
2018-08-27T02:45:06.817Z,1006.14
2018-08-27T02:45:07.419Z,1006.20
2018-08-27T02:45:08.019Z,1006.17
2018-08-27T02:45:08.617Z,1006.16
2018-08-27T02:45:09.218Z,1006.14
2018-08-27T02:46:03.211Z,1006.13
2018-08-27T02:46:03.786Z,1006.18
2018-08-27T02:46:04.384Z,1006.13
2018-08-27T02:46:04.984Z,1006.13
2018-08-27T02:46:05.584Z,1006.11
2018-08-27T02:46:06.181Z,1006.14
2018-08-27T02:46:06.781Z,1006.13
2018-08-27T02:47:00.352Z,1006.13
2018-08-27T02:47:00.923Z,1006.13
2018-08-27T02:47:01.522Z,1006.14
2018-08-27T02:47:02.127Z,1006.14
2018-08-27T02:47:02.723Z,1006.10
2018-08-27T02:47:03.322Z,1006.13
2018-08-27T02:47:03.923Z,1006.12
2018-08-27T02:47:04.522Z,1006.10
2018-08-27T02:47:58.002Z,1006.05
2018-08-27T02:47:58.575Z,1006.08
2018-08-27T02:47:59.180Z,1006.04
2018-08-27T02:47:59.776Z,1006.03
2018-08-27T02:48:00.376Z,1006.04
2018-08-27T02:48:00.976Z,1006.07
2018-08-27T02:48:01.576Z,1006.02
2018-08-27T02:48:02.174Z,1006.06
2018-08-27T02:48:56.678Z,1006.12
2018-08-27T02:48:57.252Z,1006.07
2018-08-27T02:48:57.851Z,1006.09
2018-08-27T02:48:58.449Z,1006.10
2018-08-27T02:48:59.051Z,1006.10
2018-08-27T02:48:59.650Z,1006.10
2018-08-27T02:49:00.249Z,1006.09
2018-08-27T02:49:00.851Z,1006.10
2018-08-27T02:49:55.354Z,1006.07
2018-08-27T02:49:55.925Z,1006.10
2018-08-27T02:49:56.525Z,1006.08
2018-08-27T02:49:57.125Z,1006.08
2018-08-27T02:49:57.729Z,1006.09
2018-08-27T02:49:58.325Z,1006.11
2018-08-27T02:49:58.927Z,1006.10
2018-08-27T02:49:59.524Z,1006.08
2018-08-27T02:50:53.005Z,1006.07
2018-08-27T02:50:53.577Z,1006.05
2018-08-27T02:50:54.179Z,1006.06
2018-08-27T02:50:54.778Z,1006.06
2018-08-27T02:50:55.377Z,1006.09
2018-08-27T02:50:55.978Z,1006.09
2018-08-27T02:50:56.578Z,1006.08
2018-08-27T02:50:57.177Z,1006.07
2018-08-27T02:51:50.657Z,1006.05
2018-08-27T02:51:51.231Z,1006.05
2018-08-27T02:51:51.830Z,1006.02
2018-08-27T02:51:52.433Z,1006.04
2018-08-27T02:51:53.029Z,1006.04
2018-08-27T02:51:53.631Z,1006.07
2018-08-27T02:51:54.228Z,1006.09
2018-08-27T02:51:54.831Z,1006.05
2018-08-27T02:52:48.310Z,1006.02
2018-08-27T02:52:48.882Z,1006.03
2018-08-27T02:52:49.482Z,1006.03
2018-08-27T02:52:50.084Z,1006.02
2018-08-27T02:52:50.682Z,1006.01
2018-08-27T02:52:51.280Z,1005.99
2018-08-27T02:52:51.881Z,1005.99
2018-08-27T02:52:52.484Z,1006.00
2018-08-27T02:53:46.064Z,1006.00
2018-08-27T02:53:46.636Z,1005.96
2018-08-27T02:53:47.236Z,1005.96
2018-08-27T02:53:47.837Z,1005.99
2018-08-27T02:53:48.436Z,1006.00
2018-08-27T02:53:49.036Z,1006.01
2018-08-27T02:53:49.636Z,1005.98
2018-08-27T02:53:50.235Z,1006.00
2018-08-27T02:54:43.714Z,1005.97
2018-08-27T02:54:44.287Z,1005.96
2018-08-27T02:54:44.887Z,1005.95
2018-08-27T02:54:45.491Z,1005.99
2018-08-27T02:54:46.087Z,1005.98
2018-08-27T02:54:46.687Z,1005.96
2018-08-27T02:54:47.287Z,1005.95
2018-08-27T02:54:47.887Z,1005.96
2018-08-27T02:55:41.367Z,1005.93
2018-08-27T02:55:41.939Z,1005.93
2018-08-27T02:55:42.538Z,1005.90
2018-08-27T02:55:43.141Z,1005.92
2018-08-27T02:55:43.738Z,1005.88
2018-08-27T02:55:44.340Z,1005.97
2018-08-27T02:55:44.941Z,1005.94
2018-08-27T02:55:45.540Z,1005.98
2018-08-27T02:56:40.043Z,1005.90
2018-08-27T02:56:40.614Z,1005.93
2018-08-27T02:56:41.215Z,1005.92
2018-08-27T02:56:41.815Z,1005.95
2018-08-27T02:56:42.413Z,1005.91
2018-08-27T02:56:43.015Z,1005.96
2018-08-27T02:56:43.616Z,1005.96
2018-08-27T02:56:44.217Z,1005.95
2018-08-27T02:57:38.720Z,1005.91
2018-08-27T02:57:39.291Z,1005.91
2018-08-27T02:57:39.889Z,1005.91
2018-08-27T02:57:40.492Z,1005.90
2018-08-27T02:57:41.091Z,1005.93
2018-08-27T02:57:41.690Z,1005.91
2018-08-27T02:57:42.292Z,1005.90
2018-08-27T02:57:42.888Z,1005.92